Time;durP1;ratioP1;P1;durP2;ratioP2;P2;SDS_P1;SDS_P2;PMS_P1;PMS_P2;Temp;Humidity;BMP_temperature;BMP_pressure;BME280_temperature;BME280_humidity;BME280_pressure;Samples;Min_cycle;Max_cycle;Signal;HPM_P1;HPM_P2
2023/06/24 00:00:19;;;;;;;95.05;44.17;;;;;;;15.92;100.00;102596.06;5095570;28;20127;-55
2023/06/24 00:02:45;;;;;;;78.63;41.05;;;;;;;15.78;100.00;102591.28;5080619;28;20154;-55
2023/06/24 00:05:12;;;;;;;94.68;45.08;;;;;;;15.83;100.00;102586.63;5103614;28;20462;-55
2023/06/24 00:07:44;;;;;;;85.20;43.75;;;;;;;15.83;100.00;102586.63;5108283;28;20414;-55
2023/06/24 00:10:14;;;;;;;90.03;42.70;;;;;;;15.89;100.00;102602.41;5093569;28;20052;-55
2023/06/24 00:12:43;;;;;;;;;;;;;;;15.82;100.00;102603.53;5106268;28;20129;-54
2023/06/24 00:15:10;;;;;;;80.68;40.67;;;;;;;15.76;100.00;102603.81;5101107;28;19935;-55
2023/06/24 00:17:37;;;;;;;88.57;44.85;;;;;;;15.77;100.00;102613.50;5105860;28;20348;-55
2023/06/24 00:20:06;;;;;;;91.03;45.72;;;;;;;15.80;100.00;102602.72;5093344;28;20143;-57
2023/06/24 00:22:33;;;;;;;91.22;45.80;;;;;;;15.75;100.00;102599.34;5097324;28;20124;-55
2023/06/24 00:25:00;;;;;;;89.85;43.08;;;;;;;15.75;100.00;102604.69;5084820;28;20044;-55
2023/06/24 00:27:27;;;;;;;80.05;41.97;;;;;;;15.66;100.00;102626.34;5094737;28;20055;-55
2023/06/24 00:29:53;;;;;;;78.88;39.67;;;;;;;15.57;100.00;102641.75;5080873;28;20425;-55
2023/06/24 00:32:20;;;;;;;80.68;43.13;;;;;;;15.59;100.00;102626.59;5092239;28;20052;-55
2023/06/24 00:34:47;;;;;;;86.07;43.13;;;;;;;15.57;100.00;102623.09;5105245;28;20076;-55
2023/06/24 00:37:14;;;;;;;80.72;40.67;;;;;;;15.54;100.00;102633.00;5074964;28;20135;-55
2023/06/24 00:39:41;;;;;;;88.50;42.70;;;;;;;15.59;100.00;102641.69;5103816;28;20047;-55
2023/06/24 00:42:07;;;;;;;76.07;40.80;;;;;;;15.55;100.00;102638.28;5103806;28;20135;-55
2023/06/24 00:44:34;;;;;;;81.60;43.08;;;;;;;15.48;100.00;102644.78;5102180;28;21015;-55
2023/06/24 00:47:01;;;;;;;85.78;42.10;;;;;;;15.34;100.00;102644.38;5091489;28;20552;-55
2023/06/24 00:49:28;;;;;;;84.22;43.00;;;;;;;15.38;100.00;102644.22;5077458;28;20053;-56
2023/06/24 00:51:55;;;;;;;73.07;39.25;;;;;;;15.34;100.00;102647.06;5077500;28;20052;-55
2023/06/24 00:54:30;;;;;;;78.50;41.03;;;;;;;15.33;100.00;102656.84;5079781;28;20051;-55
2023/06/24 00:57:00;;;;;;;76.35;39.25;;;;;;;15.23;100.00;102645.66;5079981;28;20382;-55
2023/06/24 00:59:29;;;;;;;78.07;37.83;;;;;;;15.20;100.00;102640.44;5080285;28;20048;-55
2023/06/24 01:01:56;;;;;;;74.78;39.10;;;;;;;15.15;100.00;102637.06;5078500;28;20491;-55
2023/06/24 01:04:24;;;;;;;70.30;36.53;;;;;;;15.12;100.00;102637.16;5075360;28;20141;-55
2023/06/24 01:06:52;;;;;;;66.25;34.50;;;;;;;15.06;100.00;102626.72;5081265;28;20052;-55
2023/06/24 01:09:19;;;;;;;61.60;33.38;;;;;;;15.07;100.00;102631.09;5082679;28;20418;-55
2023/06/24 01:11:46;;;;;;;60.20;33.95;;;;;;;15.02;100.00;102619.75;5077510;28;20055;-55
2023/06/24 01:14:12;;;;;;;63.70;32.45;;;;;;;14.93;100.00;102617.41;5077973;28;20460;-55
2023/06/24 01:16:56;;;;;;;60.30;33.70;;;;;;;14.84;100.00;102615.91;5076405;28;20050;-55
2023/06/24 01:19:45;;;;;;;58.95;31.33;;;;;;;14.79;100.00;102612.56;5081681;28;20049;-56
2023/06/24 01:22:46;;;;;;;55.38;31.33;;;;;;;14.73;100.00;102596.78;5083157;28;20044;-55
2023/06/24 01:25:59;;;;;;;56.92;32.25;;;;;;;14.70;100.00;102602.22;5081832;28;20044;-55
2023/06/24 01:28:56;;;;;;;56.30;31.60;;;;;;;14.76;100.00;102592.25;5079339;28;20044;-55
2023/06/24 01:31:41;;;;;;;53.88;30.80;;;;;;;14.62;100.00;102599.81;5082406;28;20082;-55
2023/06/24 01:34:57;;;;;;;58.97;33.10;;;;;;;14.63;100.00;102574.94;5081457;28;20044;-55
2023/06/24 01:37:43;;;;;;;62.83;33.92;;;;;;;14.63;100.00;102569.59;5020683;28;20653;-55
2023/06/24 01:40:12;;;;;;;68.65;33.95;;;;;;;14.66;100.00;102564.19;5085044;28;20064;-55
2023/06/24 01:42:42;;;;;;;66.35;34.28;;;;;;;14.55;100.00;102560.97;5082525;28;20724;-55
2023/06/24 01:45:35;;;;;;;62.53;30.70;;;;;;;14.63;100.00;102574.94;5081628;28;20040;-55
2023/06/24 01:48:11;;;;;;;51.40;29.45;;;;;;;14.64;100.00;102571.34;5085366;28;20112;-56
2023/06/24 01:50:42;;;;;;;50.97;29.02;;;;;;;14.64;100.00;102574.03;5087005;28;20422;-55
2023/06/24 01:53:11;;;;;;;47.45;27.75;;;;;;;14.60;100.00;102569.75;5085468;28;20044;-55
2023/06/24 01:55:38;;;;;;;43.67;25.10;;;;;;;14.58;100.00;102566.19;5085697;28;20074;-55
2023/06/24 01:58:08;;;;;;;47.95;26.13;;;;;;;14.50;100.00;102562.03;5083692;28;20040;-55
2023/06/24 02:00:36;;;;;;;38.72;23.70;;;;;;;14.50;100.00;102570.00;5084462;28;20681;-55
2023/06/24 02:03:06;;;;;;;44.45;23.35;;;;;;;14.45;100.00;102561.31;5083162;28;20058;-56
2023/06/24 02:05:34;;;;;;;42.08;24.98;;;;;;;14.40;100.00;102541.97;5087590;28;20048;-55
2023/06/24 02:08:03;;;;;;;38.28;24.00;;;;;;;14.40;100.00;102543.75;5085848;28;20052;-55
2023/06/24 02:10:30;;;;;;;45.85;23.92;;;;;;;14.32;100.00;102536.03;5068000;28;20537;-55
2023/06/24 02:12:58;;;;;;;37.40;22.90;;;;;;;14.25;100.00;102532.69;5083838;28;20126;-55
2023/06/24 02:15:28;;;;;;;34.35;21.40;;;;;;;14.22;100.00;102534.56;5086546;28;20052;-55
2023/06/24 02:17:56;;;;;;;37.63;21.42;;;;;;;14.16;100.00;102526.81;5087478;28;20044;-55
2023/06/24 02:20:26;;;;;;;38.03;21.77;;;;;;;14.08;100.00;102527.91;5086018;28;20115;-56
2023/06/24 02:22:54;;;;;;;34.97;20.45;;;;;;;14.06;100.00;102521.78;5080191;28;20050;-56
2023/06/24 02:25:22;;;;;;;35.28;19.88;;;;;;;14.02;100.00;102508.66;5083386;28;20037;-57
2023/06/24 02:27:49;;;;;;;35.63;18.92;;;;;;;13.96;100.00;102515.03;5083857;28;20136;-56
2023/06/24 02:30:16;;;;;;;28.95;19.73;;;;;;;13.98;100.00;102517.63;5082899;28;20047;-56
2023/06/24 02:32:43;;;;;;;29.50;19.90;;;;;;;13.94;100.00;102522.16;5083763;28;20052;-57
2023/06/24 02:35:09;;;;;;;32.10;19.33;;;;;;;13.90;100.00;102512.56;5086991;28;20459;-58
2023/06/24 02:37:36;;;;;;;34.00;19.65;;;;;;;13.86;100.00;102550.78;5084084;28;20049;-56
2023/06/24 02:40:05;;;;;;;27.58;17.33;;;;;;;13.87;100.00;102564.03;5083186;28;20048;-56
2023/06/24 02:42:31;;;;;;;29.80;19.83;;;;;;;13.81;100.00;102561.56;5083842;28;20478;-56
2023/06/24 02:44:59;;;;;;;32.30;17.73;;;;;;;13.77;100.00;102551.94;5099770;28;20124;-56
2023/06/24 02:47:26;;;;;;;29.77;17.17;;;;;;;13.76;100.00;102528.94;5083606;28;20047;-56
2023/06/24 02:49:56;;;;;;;35.10;19.17;;;;;;;13.64;100.00;102534.63;5082806;28;20602;-56
2023/06/24 02:52:22;;;;;;;28.92;18.23;;;;;;;13.61;100.00;102527.63;5081896;28;20131;-56
2023/06/24 02:54:49;;;;;;;28.85;18.90;;;;;;;13.63;100.00;102507.19;5082065;28;20380;-56
2023/06/24 02:57:16;;;;;;;28.35;18.63;;;;;;;13.59;100.00;102516.16;5075998;28;20044;-56
2023/06/24 02:59:43;;;;;;;32.17;19.25;;;;;;;13.61;100.00;102513.47;5084109;28;20147;-55
2023/06/24 03:02:10;;;;;;;31.48;18.77;;;;;;;13.60;100.00;102528.56;5083496;28;20076;-56
2023/06/24 03:04:38;;;;;;;29.77;18.40;;;;;;;13.58;100.00;102535.69;5087088;28;20071;-56
2023/06/24 03:07:05;;;;;;;33.88;16.73;;;;;;;13.53;100.00;102537.59;5082018;28;20582;-56
2023/06/24 03:09:35;;;;;;;33.95;18.73;;;;;;;13.57;100.00;102549.91;5084317;28;20052;-56
2023/06/24 03:12:02;;;;;;;29.03;18.40;;;;;;;13.53;100.00;102559.72;5083877;28;20056;-56
2023/06/24 03:14:29;;;;;;;27.70;18.25;;;;;;;13.51;100.00;102555.38;5085433;28;20441;-56
2023/06/24 03:16:55;;;;;;;31.35;18.48;;;;;;;13.51;100.00;102555.38;5082745;28;20074;-56
2023/06/24 03:19:22;;;;;;;30.60;18.38;;;;;;;13.51;100.00;102547.41;5078236;28;20055;-56
2023/06/24 03:21:48;;;;;;;36.33;20.33;;;;;;;13.48;100.00;102550.16;5080634;28;20058;-56
2023/06/24 03:24:15;;;;;;;33.03;19.45;;;;;;;13.47;100.00;102548.41;5083356;28;20587;-55
2023/06/24 03:26:41;;;;;;;32.42;19.48;;;;;;;13.55;100.00;102551.69;5068066;28;20404;-55
2023/06/24 03:29:08;;;;;;;31.27;18.48;;;;;;;13.48;100.00;102564.31;5079279;28;20044;-56
2023/06/24 03:31:35;;;;;;;29.17;18.38;;;;;;;13.47;100.00;102556.38;5084979;28;20391;-56
2023/06/24 03:34:02;;;;;;;26.30;17.30;;;;;;;13.44;100.00;102559.13;5071128;28;20055;-55
2023/06/24 03:36:28;;;;;;;34.78;18.98;;;;;;;13.44;100.00;102560.00;5086972;28;20520;-56
2023/06/24 03:38:55;;;;;;;32.63;18.60;;;;;;;13.47;100.00;102556.38;5084196;28;20400;-56
2023/06/24 03:41:21;;;;;;;34.20;18.15;;;;;;;13.52;100.00;102551.81;5084428;28;20058;-56
2023/06/24 03:43:48;;;;;;;28.92;17.90;;;;;;;13.54;100.00;102563.25;5086793;28;20051;-56
2023/06/24 03:46:14;;;;;;;30.75;19.48;;;;;;;13.55;100.00;102562.34;5083971;28;20595;-56
2023/06/24 03:48:41;;;;;;;36.25;20.08;;;;;;;13.54;100.00;102558.81;5085718;28;20136;-56
2023/06/24 03:51:08;;;;;;;31.33;18.65;;;;;;;13.57;100.00;102566.69;5081926;28;20040;-56
2023/06/24 03:53:34;;;;;;;32.10;18.88;;;;;;;13.58;100.00;102567.56;5085471;28;20060;-56
2023/06/24 03:56:01;;;;;;;31.60;17.58;;;;;;;13.54;100.00;102552.63;5070657;28;20050;-56
2023/06/24 03:58:27;;;;;;;31.67;19.27;;;;;;;13.54;100.00;102560.59;5083952;28;20075;-56
2023/06/24 04:00:56;;;;;;;31.50;19.45;;;;;;;13.54;100.00;102560.59;5085117;28;20139;-56
2023/06/24 04:03:26;;;;;;;36.95;19.55;;;;;;;13.54;100.00;102571.25;5080570;28;20056;-56
2023/06/24 04:05:54;;;;;;;34.13;19.77;;;;;;;13.57;100.00;102549.91;5082807;28;20459;-56
2023/06/24 04:08:22;;;;;;;30.38;19.63;;;;;;;13.55;100.00;102541.06;5079954;28;20054;-56
2023/06/24 04:10:48;;;;;;;36.28;21.00;;;;;;;13.53;100.00;102538.47;5076027;28;20084;-57
2023/06/24 04:13:15;;;;;;;31.77;20.05;;;;;;;13.55;100.00;102531.34;5079827;28;20082;-56
2023/06/24 04:15:41;;;;;;;30.30;18.80;;;;;;;13.54;100.00;102531.38;5081478;28;20499;-57
2023/06/24 04:18:08;;;;;;;35.47;20.73;;;;;;;13.56;100.00;102533.06;5078430;28;20135;-57
2023/06/24 04:20:35;;;;;;;40.35;23.17;;;;;;;13.56;100.00;102534.84;5082581;28;20490;-57
2023/06/24 04:23:09;;;;;;;39.33;22.00;;;;;;;13.63;100.00;102523.13;5081236;28;20118;-57
2023/06/24 04:25:35;;;;;;;35.42;21.13;;;;;;;13.65;100.00;102531.94;5078337;28;20575;-57
2023/06/24 04:28:04;;;;;;;37.50;20.98;;;;;;;13.73;100.00;102518.41;5081296;28;20079;-57
2023/06/24 04:30:32;;;;;;;32.85;19.45;;;;;;;13.76;100.00;102503.25;5081038;28;20056;-57
2023/06/24 04:32:58;;;;;;;28.55;19.38;;;;;;;13.79;100.00;102490.78;5095751;28;20055;-58
2023/06/24 04:35:25;;;;;;;36.63;19.90;;;;;;;13.73;100.00;102468.78;5075684;28;20040;-58
2023/06/24 04:37:51;;;;;;;29.08;19.25;;;;;;;13.77;100.00;102473.06;5083220;28;20058;-58
2023/06/24 04:40:19;;;;;;;39.40;20.30;;;;;;;13.79;100.00;102464.19;5078966;28;20048;-58
2023/06/24 04:42:45;;;;;;;34.50;21.20;;;;;;;13.73;100.00;102460.81;5081465;28;20438;-58
2023/06/24 04:45:12;;;;;;;35.70;19.60;;;;;;;13.76;100.00;102460.72;5083827;28;20176;-57
2023/06/24 04:47:39;;;;;;;33.13;20.58;;;;;;;13.74;100.00;102438.63;5083799;28;20048;-57
2023/06/24 04:50:06;;;;;;;36.20;21.30;;;;;;;13.70;100.00;102437.00;5078801;28;20476;-58
2023/06/24 04:52:33;;;;;;;32.70;20.35;;;;;;;13.70;100.00;102434.34;5082835;28;20490;-58
2023/06/24 04:54:59;;;;;;;36.30;19.60;;;;;;;13.74;100.00;102381.97;5081039;28;20040;-57
2023/06/24 04:57:30;;;;;;;41.50;20.45;;;;;;;13.76;100.00;102348.22;5067342;28;20060;-58
2023/06/24 04:59:58;;;;;;;39.45;21.65;;;;;;;13.83;100.00;102335.59;5084500;28;20048;-57
2023/06/24 05:02:25;;;;;;;31.95;20.75;;;;;;;13.86;100.00;102322.19;5067276;28;20044;-58
2023/06/24 05:04:52;;;;;;;37.20;21.45;;;;;;;13.92;100.00;102316.69;5088644;28;20046;-59
2023/06/24 05:07:19;;;;;;;34.17;20.10;;;;;;;13.97;100.00;102297.91;5085430;28;20652;-57
2023/06/24 05:09:51;;;;;;;35.15;20.92;;;;;;;14.09;100.00;102303.66;5084450;28;20048;-56
2023/06/24 05:12:17;;;;;;;35.42;21.63;;;;;;;14.18;100.00;102301.59;5082268;28;20055;-57
2023/06/24 05:14:44;;;;;;;32.15;20.38;;;;;;;14.34;100.00;102293.94;5084327;28;20108;-57
2023/06/24 05:17:10;;;;;;;29.60;20.05;;;;;;;14.36;100.00;102300.06;5086185;28;20081;-57
2023/06/24 05:19:37;;;;;;;32.58;18.63;;;;;;;14.46;100.00;102275.69;5084269;28;20044;-57
2023/06/24 05:22:03;;;;;;;32.45;20.30;;;;;;;14.46;100.00;102281.03;5082246;28;20138;-57
2023/06/24 05:24:30;;;;;;;31.08;18.75;;;;;;;14.60;100.00;102277.03;5084642;28;20072;-57
2023/06/24 05:26:56;;;;;;;28.25;18.08;;;;;;;14.67;100.00;102276.72;5081709;28;20131;-57
2023/06/24 05:29:23;;;;;;;28.77;19.13;;;;;;;14.73;100.00;102288.94;5077695;28;20066;-57
2023/06/24 05:31:49;;;;;;;32.55;17.40;;;;;;;14.67;100.00;102281.16;5084136;28;20055;-57
2023/06/24 05:34:16;;;;;;;31.73;16.70;;;;;;;14.74;100.00;102290.66;5083713;28;20135;-57
2023/06/24 05:36:42;;;;;;;31.95;18.83;;;;;;;14.63;100.00;102283.09;5083201;28;20043;-57
2023/06/24 05:39:11;;;;;;;23.80;16.40;;;;;;;14.66;100.00;102282.09;5084645;28;20127;-57
2023/06/24 05:41:37;;;;;;;29.35;18.92;;;;;;;14.71;100.00;102273.94;5083699;28;20113;-57
2023/06/24 05:44:06;;;;;;;26.50;16.98;;;;;;;14.71;100.00;102265.94;5080329;28;20040;-57
2023/06/24 05:46:33;;;;;;;27.67;17.38;;;;;;;14.73;100.00;102272.97;5082728;28;20052;-57
2023/06/24 05:49:00;;;;;;;27.95;17.77;;;;;;;14.76;100.00;102270.19;5085314;28;20075;-58
2023/06/24 05:51:27;;;;;;;30.30;17.30;;;;;;;14.98;100.00;102280.81;5081337;28;20136;-57
2023/06/24 05:53:53;;;;;;;23.95;14.52;;;;;;;15.09;100.00;102264.44;5082463;28;20131;-57
2023/06/24 05:56:20;;;;;;;25.98;14.82;;;;;;;15.22;100.00;102267.47;5081994;28;20075;-57
2023/06/24 05:58:47;;;;;;;23.98;13.52;;;;;;;15.17;100.00;102251.66;5085201;28;20162;-57
2023/06/24 06:01:14;;;;;;;28.25;15.32;;;;;;;15.16;100.00;102233.94;5085737;28;20052;-57
2023/06/24 06:03:41;;;;;;;25.10;12.98;;;;;;;15.26;100.00;102228.25;5081428;28;20486;-57
2023/06/24 06:06:07;;;;;;;21.30;14.02;;;;;;;15.26;100.00;102222.91;5083962;28;20456;-57
2023/06/24 06:08:34;;;;;;;19.98;13.02;;;;;;;15.34;100.00;102210.13;5082140;28;20506;-57
2023/06/24 06:11:03;;;;;;;27.30;14.10;;;;;;;15.37;100.00;102210.00;5080439;28;20044;-59
2023/06/24 06:13:30;;;;;;;21.00;14.30;;;;;;;15.39;100.00;102205.47;5081707;28;20055;-57
2023/06/24 06:15:57;;;;;;;23.10;13.27;;;;;;;15.44;100.00;102205.28;5076772;28;20360;-58
2023/06/24 06:18:24;;;;;;;27.27;13.70;;;;;;;15.49;100.00;102204.13;5081696;28;23268;-58
2023/06/24 06:20:51;;;;;;;20.10;14.35;;;;;;;15.55;100.00;102203.03;5084283;28;20040;-60
2023/06/24 06:23:17;;;;;;;22.20;13.10;;;;;;;15.49;100.00;102198.81;5083520;28;20111;-58
2023/06/24 06:25:44;;;;;;;23.08;13.75;;;;;;;15.54;100.00;102199.47;5084128;28;20051;-58
2023/06/24 06:28:14;;;;;;;21.48;11.50;;;;;;;15.75;100.00;102200.31;5084861;28;20480;-58
2023/06/24 06:30:40;;;;;;;21.85;13.02;;;;;;;15.76;100.00;102202.09;5083711;28;20044;-57
2023/06/24 06:33:07;;;;;;;20.98;12.52;;;;;;;15.82;100.00;102195.63;5085174;28;20055;-57
2023/06/24 06:35:34;;;;;;;16.77;12.27;;;;;;;15.94;100.00;102183.56;5084764;28;20052;-58
2023/06/24 06:38:01;;;;;;;20.60;11.15;;;;;;;16.01;100.00;102181.47;5081852;28;20454;-57
2023/06/24 06:40:28;;;;;;;19.52;11.30;;;;;;;16.06;100.00;102184.78;5083601;28;20135;-56
2023/06/24 06:42:55;;;;;;;17.27;11.90;;;;;;;16.12;100.00;102173.84;5081811;28;20504;-56
2023/06/24 06:45:21;;;;;;;19.17;11.15;;;;;;;16.20;100.00;102185.03;5083582;28;20048;-57
2023/06/24 06:47:49;;;;;;;21.08;10.80;;;;;;;16.30;100.00;102180.97;5081421;28;20460;-56
2023/06/24 06:50:16;;;;;;;15.45;10.75;;;;;;;16.45;100.00;102175.84;5082743;28;20056;-57
2023/06/24 06:52:42;;;;;;;14.90;11.25;;;;;;;16.57;100.00;102177.91;5083452;28;20040;-58
2023/06/24 06:55:09;;;;;;;18.27;10.40;;;;;;;16.67;100.00;102171.22;5082731;28;20044;-58
2023/06/24 06:57:36;;;;;;;17.30;11.35;;;;;;;16.78;100.00;102169.81;5080278;28;20041;-58
2023/06/24 07:00:03;;;;;;;15.60;9.73;;;;;;;17.05;100.00;102160.44;5082858;28;20063;-58
2023/06/24 07:02:30;;;;;;;15.40;9.68;;;;;;;17.24;100.00;102151.50;5079862;28;20049;-57
2023/06/24 07:04:56;;;;;;;18.45;10.30;;;;;;;17.20;100.00;102156.13;5084337;28;20048;-57
2023/06/24 07:07:23;;;;;;;15.20;9.48;;;;;;;17.06;100.00;102164.84;5081628;28;20051;-58
2023/06/24 07:09:49;;;;;;;19.58;10.68;;;;;;;16.92;100.00;102162.03;5079461;28;20452;-57
2023/06/24 07:12:16;;;;;;;23.95;11.00;;;;;;;16.98;100.00;102167.03;5081296;28;20135;-57
2023/06/24 07:14:42;;;;;;;17.33;10.30;;;;;;;17.20;100.00;102165.97;5082167;28;20676;-57
2023/06/24 07:17:09;;;;;;;13.52;9.48;;;;;;;17.12;100.00;102168.16;5080924;28;20262;-58
2023/06/24 07:19:35;;;;;;;16.33;9.93;;;;;;;17.30;100.00;102167.22;5084764;28;20055;-57
2023/06/24 07:22:02;;;;;;;15.93;9.15;;;;;;;17.36;100.00;102160.66;5078295;28;20051;-57
2023/06/24 07:24:29;;;;;;;13.88;10.65;;;;;;;17.10;100.00;102165.56;5077706;28;20060;-57
2023/06/24 07:26:55;;;;;;;17.52;10.77;;;;;;;17.12;100.00;102178.84;5083054;28;20051;-57
2023/06/24 07:29:22;;;;;;;18.88;10.50;;;;;;;17.32;100.00;102185.84;5080425;28;20056;-58
2023/06/24 07:31:48;;;;;;;17.80;9.32;;;;;;;17.29;100.00;102183.31;5079981;28;20445;-58
2023/06/24 07:34:15;;;;;;;19.38;10.65;;;;;;;17.51;100.00;102175.94;5082184;28;20047;-58
2023/06/24 07:36:41;;;;;;;16.55;9.52;;;;;;;17.60;100.00;102180.81;5086287;28;20560;-58
2023/06/24 07:39:08;;;;;;;13.82;8.88;;;;;;;17.91;100.00;102178.31;5083731;28;20045;-58
2023/06/24 07:41:34;;;;;;;11.27;8.13;;;;;;;17.84;100.00;102167.06;5081955;28;20055;-57
2023/06/24 07:44:01;;;;;;;16.52;9.35;;;;;;;18.14;100.00;102169.91;5083823;28;20049;-58
2023/06/24 07:46:28;;;;;;;15.05;7.78;;;;;;;18.30;100.00;102166.38;5083121;28;20040;-57
2023/06/24 07:48:55;;;;;;;11.52;8.02;;;;;;;17.96;100.00;102155.72;5083914;28;20083;-58
2023/06/24 07:51:21;;;;;;;15.40;7.85;;;;;;;17.84;100.00;102163.53;5083639;28;20050;-58
2023/06/24 07:53:48;;;;;;;11.57;8.18;;;;;;;18.22;100.00;102147.19;5083537;28;20044;-57
2023/06/24 07:56:14;;;;;;;9.52;7.22;;;;;;;18.27;100.00;102153.16;5082846;28;20535;-57
2023/06/24 07:58:41;;;;;;;12.45;7.55;;;;;;;17.87;100.00;102144.63;5080384;28;20135;-57
2023/06/24 08:01:07;;;;;;;10.57;6.07;;;;;;;17.91;100.00;102147.06;5082878;28;20081;-58
2023/06/24 08:03:34;;;;;;;12.63;7.18;;;;;;;18.12;100.00;102149.53;5084186;28;20062;-59
2023/06/24 08:06:01;;;;;;;7.65;6.78;;;;;;;18.44;100.00;102145.03;5087329;28;20040;-59
2023/06/24 08:08:27;;;;;;;10.95;6.97;;;;;;;18.62;100.00;102142.25;5057487;28;20044;-59
2023/06/24 08:10:54;;;;;;;13.52;6.32;;;;;;;18.36;100.00;102136.59;5077031;28;20059;-58
2023/06/24 08:13:21;;;;;;;12.30;7.20;;;;;;;18.27;100.00;102153.16;5081152;28;20052;-59
2023/06/24 08:15:47;;;;;;;9.52;6.20;;;;;;;18.57;100.00;102139.84;5080952;28;20058;-58
2023/06/24 08:18:14;;;;;;;9.32;6.20;;;;;;;18.83;100.00;102137.47;5080899;28;20043;-58
2023/06/24 08:20:41;;;;;;;10.38;6.57;;;;;;;19.03;100.00;102142.53;5079655;28;20044;-58
2023/06/24 08:23:09;;;;;;;10.95;6.82;;;;;;;18.73;100.00;102155.88;5079040;28;20371;-59
2023/06/24 08:25:36;;;;;;;15.35;7.18;;;;;;;18.04;100.00;102152.63;5080380;28;20112;-58
2023/06/24 08:28:03;;;;;;;13.38;6.90;;;;;;;18.17;100.00;102148.31;5080063;28;20047;-58
2023/06/24 08:30:29;;;;;;;8.27;5.50;;;;;;;17.94;100.00;102143.38;5081273;28;20774;-57
2023/06/24 08:32:56;;;;;;;11.80;6.97;;;;;;;18.57;100.00;102138.97;5096450;28;20697;-58
2023/06/24 08:35:22;;;;;;;8.13;5.90;;;;;;;18.57;100.00;102138.97;5080496;28;20040;-57
2023/06/24 08:37:49;;;;;;;6.70;5.45;;;;;;;18.89;100.00;102126.41;5084446;28;20040;-57
2023/06/24 08:40:17;;;;;;;14.35;6.60;;;;;;;19.09;100.00;102125.22;5080505;28;20082;-57
2023/06/24 08:42:44;;;;;;;10.02;5.78;;;;;;;19.24;100.00;102132.34;5077423;28;20142;-56
2023/06/24 08:45:10;;;;;;;7.18;5.20;;;;;;;19.41;100.00;102130.47;5080263;28;20052;-58
2023/06/24 08:47:37;;;;;;;12.15;4.78;;;;;;;19.07;100.00;102129.81;5081093;28;20064;-58
2023/06/24 08:50:13;;;;;;;7.30;5.47;;;;;;;19.45;100.00;102132.00;5088415;28;20052;-57
2023/06/24 08:52:44;;;;;;;16.70;5.78;;;;;;;19.41;100.00;102135.81;5073045;28;20147;-57
2023/06/24 08:55:14;;;;;;;15.55;5.43;;;;;;;19.52;100.00;102128.00;5091167;28;20143;-58
2023/06/24 08:57:41;;;;;;;7.50;5.32;;;;;;;18.76;100.00;102134.28;5078333;28;20055;-58
2023/06/24 09:00:11;;;;;;;10.65;5.68;;;;;;;19.14;100.00;102149.97;5089947;28;20044;-57
2023/06/24 09:02:38;;;;;;;8.98;4.75;;;;;;;18.94;100.00;102142.22;5090922;28;20048;-57
2023/06/24 09:05:08;;;;;;;5.22;4.05;;;;;;;18.79;100.00;102139.47;5081343;28;20472;-57
2023/06/24 09:07:35;;;;;;;4.95;4.00;;;;;;;19.07;100.00;102136.03;5073522;28;20151;-58
2023/06/24 09:10:01;;;;;;;8.10;4.10;;;;;;;19.30;100.00;102135.63;5071811;28;20061;-57
2023/06/24 09:12:32;;;;;;;7.88;4.63;;;;;;;19.23;100.00;102135.13;5071782;28;20143;-57
2023/06/24 09:14:58;;;;;;;7.03;4.07;;;;;;;19.22;100.00;102136.97;5060021;28;20597;-57
2023/06/24 09:17:25;;;;;;;8.95;4.20;;;;;;;19.46;100.00;102144.44;5071706;28;20136;-57
2023/06/24 09:20:04;;;;;;;10.82;5.75;;;;;;;19.68;100.00;102133.28;5071859;28;20071;-58
2023/06/24 09:22:31;;;;;;;11.18;5.78;;;;;;;19.77;100.00;102127.34;5070404;28;20048;-58
2023/06/24 09:25:01;;;;;;;9.40;4.70;;;;;;;19.99;100.00;102137.59;5054050;28;20056;-57
2023/06/24 09:27:32;;;;;;;6.65;3.22;;;;;;;20.03;100.00;102129.34;5071899;28;20619;-58
2023/06/24 09:29:59;;;;;;;6.15;4.13;;;;;;;20.22;100.00;102121.84;5071579;28;20395;-58
2023/06/24 09:32:30;;;;;;;8.98;4.40;;;;;;;20.23;100.00;102122.69;5070514;28;20127;-57
2023/06/24 09:34:57;;;;;;;11.30;5.80;;;;;;;20.08;100.00;102127.22;5070837;28;20412;-58
2023/06/24 09:37:30;;;;;;;5.53;4.70;;;;;;;20.43;100.00;102137.50;5072236;28;20076;-57
2023/06/24 09:39:57;;;;;;;7.45;5.10;;;;;;;20.34;100.00;102123.69;5071379;28;20056;-58
2023/06/24 09:42:24;;;;;;;18.70;5.68;;;;;;;20.56;100.00;102124.97;5070644;28;20473;-58
2023/06/24 09:44:56;;;;;;;5.75;4.30;;;;;;;20.78;100.00;102123.59;5070923;28;20048;-58
2023/06/24 09:47:27;;;;;;;7.00;4.60;;;;;;;20.21;100.00;102122.78;5072007;28;20045;-58
2023/06/24 09:49:54;;;;;;;11.40;5.07;;;;;;;20.62;100.00;102126.41;5070473;28;20056;-58
2023/06/24 09:52:22;;;;;;;5.78;4.25;;;;;;;20.91;100.00;102119.09;5053775;28;20067;-57
2023/06/24 09:54:51;;;;;;;8.95;4.15;;;;;;;21.03;100.00;102112.88;5072401;28;20070;-58
2023/06/24 09:57:25;;;;;;;9.60;4.00;;;;;;;20.31;100.00;102107.78;5057371;28;20117;-57
2023/06/24 09:59:52;;;;;;;5.43;4.05;;;;;;;20.55;100.00;102109.84;5074306;28;20052;-57
2023/06/24 10:02:20;;;;;;;6.18;4.50;;;;;;;20.51;100.00;102105.63;5074441;28;20375;-58
2023/06/24 10:04:47;;;;;;;7.47;4.57;;;;;;;20.62;100.00;102103.06;5077801;28;20057;-58
2023/06/24 10:07:14;;;;;;;5.95;4.30;;;;;;;20.99;100.00;102097.94;5084886;28;20048;-58
2023/06/24 10:09:42;;;;;;;11.73;5.50;;;;;;;20.66;100.00;102093.00;5074838;28;20338;-58
2023/06/24 10:12:10;;;;;;;9.25;4.97;;;;;;;20.43;100.00;102107.94;5074644;28;20064;-58
2023/06/24 10:14:37;;;;;;;11.00;5.28;;;;;;;20.42;100.00;102100.88;5073649;28;20103;-57
2023/06/24 10:17:04;;;;;;;8.80;4.90;;;;;;;20.57;100.00;102105.22;5073506;28;20922;-58
2023/06/24 10:19:39;;;;;;;10.05;5.70;;;;;;;20.95;100.00;102115.22;5075296;28;20122;-57
2023/06/24 10:22:12;;;;;;;11.25;4.80;;;;;;;21.04;100.00;102103.84;5074078;28;20052;-58
2023/06/24 10:24:42;;;;;;;6.82;3.95;;;;;;;21.05;100.00;102105.59;5074340;28;20368;-58
2023/06/24 10:27:15;;;;;;;6.93;4.80;;;;;;;20.98;100.00;102098.91;5074708;28;20055;-58
2023/06/24 10:29:46;;;;;;;8.27;3.90;;;;;;;21.00;100.00;102090.72;5073879;28;20058;-58
2023/06/24 10:32:13;;;;;;;7.90;4.60;;;;;;;21.36;100.00;102086.44;5073547;28;20052;-58
2023/06/24 10:34:41;;;;;;;9.48;3.83;;;;;;;21.34;100.00;102078.47;5073555;28;20050;-58
2023/06/24 10:37:17;;;;;;;4.70;3.85;;;;;;;21.43;100.00;102087.72;5073252;28;20068;-58
2023/06/24 10:39:51;;;;;;;8.70;4.05;;;;;;;21.73;100.00;102084.72;5071933;28;20411;-57
2023/06/24 10:42:26;;;;;;;6.90;5.03;;;;;;;21.99;100.00;102079.28;5074241;28;20376;-58
2023/06/24 10:44:57;;;;;;;7.57;4.22;;;;;;;21.83;100.00;102076.00;5069072;28;20156;-58
2023/06/24 10:47:26;;;;;;;13.57;4.93;;;;;;;22.33;100.00;102087.56;5072541;28;20396;-58
2023/06/24 10:49:53;;;;;;;9.65;5.22;;;;;;;22.71;100.00;102067.66;5071601;28;20079;-58
2023/06/24 10:52:21;;;;;;;12.38;5.00;;;;;;;22.53;100.00;102068.09;5068388;28;20191;-58
2023/06/24 10:54:49;;;;;;;7.90;3.90;;;;;;;23.08;100.00;102076.50;5071717;28;20131;-58
2023/06/24 10:57:24;;;;;;;6.47;3.85;;;;;;;24.65;100.00;102071.03;5062789;28;20083;-58
2023/06/24 10:59:52;;;;;;;6.45;3.88;;;;;;;25.48;100.00;102064.88;5072315;28;20048;-58
2023/06/24 11:02:21;;;;;;;8.93;4.13;;;;;;;25.25;98.34;102067.72;5071069;28;20056;-58
2023/06/24 11:04:54;;;;;;;4.03;3.28;;;;;;;25.72;88.03;102068.09;5053322;28;20061;-58
2023/06/24 11:07:24;;;;;;;4.80;3.70;;;;;;;26.58;77.22;102072.06;5074797;28;20055;-58
2023/06/24 11:09:53;;;;;;;5.68;3.60;;;;;;;26.47;74.60;102060.38;5055612;28;20086;-59
2023/06/24 11:12:24;;;;;;;10.68;3.75;;;;;;;26.10;73.91;102065.63;5070519;28;20167;-58